NFFN/NAN METAR and TAF weather

Enter ICAO airport designator
Station Type Date Time Source
NFFN METAR 2021/07/26 16:00 UTC NOAA

NFFN 261600Z 11004KT 9999 FEW030 SCT120 23/21 Q1013 NOSIG


Station Type Date Time Source
NFFN Decoded METAR 2021/07/26 16:00 UTC NOAA

Nandi, Fiji (NFFN) 17-45S 177-27E 18M
Jul 26, 2021 - 12:00 PM EDT / 2021.07.26 1600 UTC
Wind: from the ESE (110 degrees) at 5 MPH (4 KT):0
Visibility: greater than 7 mile(s):0
Sky conditions: partly cloudy
Temperature: 73 F (23 C)
Dew Point: 69 F (21 C)
Relative Humidity: 88%
Pressure (altimeter): 29.91 in. Hg (1013 hPa)
ob: NFFN 261600Z 11004KT 9999 FEW030 SCT120 23/21 Q1013 NOSIG
cycle: 16

Station Type Date Time Source
NFFN TAF 2021/07/26 12:05 UTC NOAA

TAF NFFN 261101Z 2612/2712 12005KT 9999 FEW030 SCT050
BECMG 2621/2623 30010KT PROB30
TEMPO 2703/2707 5000 SHRA BKN018
BECMG 2706/2708 13005KT

Example: see airport list